sensor_id;sensor_type;location;lat;lon;timestamp;temperature;humidity
36594;DHT22;22603;47.900;8.146;2023-06-26T00:02:24;13.60;99.90
36594;DHT22;22603;47.900;8.146;2023-06-26T00:05:11;13.50;99.90
36594;DHT22;22603;47.900;8.146;2023-06-26T00:08:00;13.50;99.90
36594;DHT22;22603;47.900;8.146;2023-06-26T00:10:47;13.50;99.90
36594;DHT22;22603;47.900;8.146;2023-06-26T00:13:37;13.40;99.90
36594;DHT22;22603;47.900;8.146;2023-06-26T00:16:24;13.40;99.90
36594;DHT22;22603;47.900;8.146;2023-06-26T00:19:11;13.40;99.90
36594;DHT22;22603;47.900;8.146;2023-06-26T00:21:59;13.30;99.90
36594;DHT22;22603;47.900;8.146;2023-06-26T00:24:47;13.30;99.90
36594;DHT22;22603;47.900;8.146;2023-06-26T00:27:34;13.30;99.90
36594;DHT22;22603;47.900;8.146;2023-06-26T00:30:21;13.30;99.90
36594;DHT22;22603;47.900;8.146;2023-06-26T00:33:08;13.20;99.90
36594;DHT22;22603;47.900;8.146;2023-06-26T00:35:56;13.20;99.90
36594;DHT22;22603;47.900;8.146;2023-06-26T00:38:43;13.20;99.90
36594;DHT22;22603;47.900;8.146;2023-06-26T00:41:31;13.10;99.90
36594;DHT22;22603;47.900;8.146;2023-06-26T00:44:18;13.10;99.90
36594;DHT22;22603;47.900;8.146;2023-06-26T00:47:06;13.00;99.90
36594;DHT22;22603;47.900;8.146;2023-06-26T00:49:53;13.00;99.90
36594;DHT22;22603;47.900;8.146;2023-06-26T00:52:41;13.00;99.90
36594;DHT22;22603;47.900;8.146;2023-06-26T00:55:29;12.90;99.90
36594;DHT22;22603;47.900;8.146;2023-06-26T00:58:24;12.90;99.90
36594;DHT22;22603;47.900;8.146;2023-06-26T01:01:11;12.80;99.90
36594;DHT22;22603;47.900;8.146;2023-06-26T01:04:01;12.80;99.90
36594;DHT22;22603;47.900;8.146;2023-06-26T01:06:49;12.80;99.90
36594;DHT22;22603;47.900;8.146;2023-06-26T01:09:37;12.80;99.90
36594;DHT22;22603;47.900;8.146;2023-06-26T01:12:24;12.70;99.90
36594;DHT22;22603;47.900;8.146;2023-06-26T01:15:13;12.70;99.90
36594;DHT22;22603;47.900;8.146;2023-06-26T01:18:00;12.60;99.90
36594;DHT22;22603;47.900;8.146;2023-06-26T01:20:49;12.60;99.90
36594;DHT22;22603;47.900;8.146;2023-06-26T01:23:39;12.60;99.90
36594;DHT22;22603;47.900;8.146;2023-06-26T01:26:35;12.50;99.90
36594;DHT22;22603;47.900;8.146;2023-06-26T01:29:24;12.60;99.90
36594;DHT22;22603;47.900;8.146;2023-06-26T01:32:12;12.50;99.90
36594;DHT22;22603;47.900;8.146;2023-06-26T01:35:04;12.50;99.90
36594;DHT22;22603;47.900;8.146;2023-06-26T01:37:52;12.40;99.90
36594;DHT22;22603;47.900;8.146;2023-06-26T01:40:39;12.40;99.90
36594;DHT22;22603;47.900;8.146;2023-06-26T01:43:31;12.40;99.90
36594;DHT22;22603;47.900;8.146;2023-06-26T01:46:24;12.40;99.90
36594;DHT22;22603;47.900;8.146;2023-06-26T01:49:17;12.30;99.90
36594;DHT22;22603;47.900;8.146;2023-06-26T01:52:10;12.30;99.90
36594;DHT22;22603;47.900;8.146;2023-06-26T01:55:04;12.20;99.90
36594;DHT22;22603;47.900;8.146;2023-06-26T01:57:55;12.20;99.90
36594;DHT22;22603;47.900;8.146;2023-06-26T02:00:44;12.20;99.90
36594;DHT22;22603;47.900;8.146;2023-06-26T02:03:31;12.10;99.90
36594;DHT22;22603;47.900;8.146;2023-06-26T02:06:19;12.10;99.90
36594;DHT22;22603;47.900;8.146;2023-06-26T02:09:06;12.10;99.90
36594;DHT22;22603;47.900;8.146;2023-06-26T02:11:53;12.10;99.90
36594;DHT22;22603;47.900;8.146;2023-06-26T02:14:40;12.10;99.90
36594;DHT22;22603;47.900;8.146;2023-06-26T02:17:28;12.10;99.90
36594;DHT22;22603;47.900;8.146;2023-06-26T02:20:17;12.10;99.90
36594;DHT22;22603;47.900;8.146;2023-06-26T02:23:04;12.00;99.90
36594;DHT22;22603;47.900;8.146;2023-06-26T02:25:51;12.00;99.90
36594;DHT22;22603;47.900;8.146;2023-06-26T02:28:38;12.00;99.90
36594;DHT22;22603;47.900;8.146;2023-06-26T02:31:25;12.00;99.90
36594;DHT22;22603;47.900;8.146;2023-06-26T02:34:13;11.90;99.90
36594;DHT22;22603;47.900;8.146;2023-06-26T02:37:01;11.90;99.90
36594;DHT22;22603;47.900;8.146;2023-06-26T02:39:48;11.90;99.90
36594;DHT22;22603;47.900;8.146;2023-06-26T02:42:35;11.80;99.90
36594;DHT22;22603;47.900;8.146;2023-06-26T02:45:22;11.80;99.90
36594;DHT22;22603;47.900;8.146;2023-06-26T02:48:09;11.80;99.90
36594;DHT22;22603;47.900;8.146;2023-06-26T02:50:58;11.80;99.90
36594;DHT22;22603;47.900;8.146;2023-06-26T02:53:46;11.70;99.90
36594;DHT22;22603;47.900;8.146;2023-06-26T02:56:33;11.70;99.90
36594;DHT22;22603;47.900;8.146;2023-06-26T02:59:29;11.70;99.90
36594;DHT22;22603;47.900;8.146;2023-06-26T03:02:16;11.70;99.90
36594;DHT22;22603;47.900;8.146;2023-06-26T03:05:04;11.60;99.90
36594;DHT22;22603;47.900;8.146;2023-06-26T03:07:52;11.60;99.90
36594;DHT22;22603;47.900;8.146;2023-06-26T03:10:39;11.60;99.90
36594;DHT22;22603;47.900;8.146;2023-06-26T03:13:26;11.60;99.90
36594;DHT22;22603;47.900;8.146;2023-06-26T03:16:13;11.60;99.90
36594;DHT22;22603;47.900;8.146;2023-06-26T03:19:00;11.50;99.90
36594;DHT22;22603;47.900;8.146;2023-06-26T03:21:47;11.60;99.90
36594;DHT22;22603;47.900;8.146;2023-06-26T03:24:36;11.60;99.90
36594;DHT22;22603;47.900;8.146;2023-06-26T03:27:23;11.60;99.90
36594;DHT22;22603;47.900;8.146;2023-06-26T03:30:11;11.50;99.90
36594;DHT22;22603;47.900;8.146;2023-06-26T03:32:58;11.60;99.90
36594;DHT22;22603;47.900;8.146;2023-06-26T03:35:46;11.60;99.90
36594;DHT22;22603;47.900;8.146;2023-06-26T03:38:32;11.60;99.90
36594;DHT22;22603;47.900;8.146;2023-06-26T03:41:21;11.50;99.90
36594;DHT22;22603;47.900;8.146;2023-06-26T03:44:08;11.50;99.90
36594;DHT22;22603;47.900;8.146;2023-06-26T03:46:55;11.60;99.90
36594;DHT22;22603;47.900;8.146;2023-06-26T03:49:42;11.60;99.90
36594;DHT22;22603;47.900;8.146;2023-06-26T03:52:28;11.60;99.90
36594;DHT22;22603;47.900;8.146;2023-06-26T03:55:16;11.60;99.90
36594;DHT22;22603;47.900;8.146;2023-06-26T03:58:06;11.60;99.90
36594;DHT22;22603;47.900;8.146;2023-06-26T04:00:53;11.60;99.90
36594;DHT22;22603;47.900;8.146;2023-06-26T04:03:41;11.60;99.90
36594;DHT22;22603;47.900;8.146;2023-06-26T04:06:28;11.70;99.90
36594;DHT22;22603;47.900;8.146;2023-06-26T04:09:17;11.70;99.90
36594;DHT22;22603;47.900;8.146;2023-06-26T04:12:06;11.80;99.90
36594;DHT22;22603;47.900;8.146;2023-06-26T04:14:54;11.80;99.90
36594;DHT22;22603;47.900;8.146;2023-06-26T04:17:41;11.80;99.90
36594;DHT22;22603;47.900;8.146;2023-06-26T04:20:28;11.90;99.90
36594;DHT22;22603;47.900;8.146;2023-06-26T04:23:14;11.90;99.90
36594;DHT22;22603;47.900;8.146;2023-06-26T04:26:02;12.00;99.90
36594;DHT22;22603;47.900;8.146;2023-06-26T04:28:50;12.10;99.90
36594;DHT22;22603;47.900;8.146;2023-06-26T04:31:39;12.10;99.90
36594;DHT22;22603;47.900;8.146;2023-06-26T04:34:27;12.10;99.90
36594;DHT22;22603;47.900;8.146;2023-06-26T04:37:14;12.20;99.90
36594;DHT22;22603;47.900;8.146;2023-06-26T04:40:03;12.30;99.90
36594;DHT22;22603;47.900;8.146;2023-06-26T04:42:50;12.30;99.90
36594;DHT22;22603;47.900;8.146;2023-06-26T04:45:37;12.40;99.90
36594;DHT22;22603;47.900;8.146;2023-06-26T04:48:26;12.50;99.90
36594;DHT22;22603;47.900;8.146;2023-06-26T04:51:15;12.60;99.90
36594;DHT22;22603;47.900;8.146;2023-06-26T04:54:06;12.70;99.90
36594;DHT22;22603;47.900;8.146;2023-06-26T04:56:54;12.80;99.90
36594;DHT22;22603;47.900;8.146;2023-06-26T04:59:41;12.90;99.90
36594;DHT22;22603;47.900;8.146;2023-06-26T05:02:28;13.00;99.90
36594;DHT22;22603;47.900;8.146;2023-06-26T05:05:16;13.10;99.90
36594;DHT22;22603;47.900;8.146;2023-06-26T05:08:17;13.30;99.90
36594;DHT22;22603;47.900;8.146;2023-06-26T05:11:04;13.40;99.90
36594;DHT22;22603;47.900;8.146;2023-06-26T05:13:51;13.50;99.90
36594;DHT22;22603;47.900;8.146;2023-06-26T05:16:38;13.70;99.90
36594;DHT22;22603;47.900;8.146;2023-06-26T05:19:24;13.80;99.90
36594;DHT22;22603;47.900;8.146;2023-06-26T05:22:13;14.00;99.90
36594;DHT22;22603;47.900;8.146;2023-06-26T05:25:03;14.20;99.90
36594;DHT22;22603;47.900;8.146;2023-06-26T05:27:52;14.30;99.90
36594;DHT22;22603;47.900;8.146;2023-06-26T05:30:39;14.50;99.90
36594;DHT22;22603;47.900;8.146;2023-06-26T05:33:27;14.60;99.90
36594;DHT22;22603;47.900;8.146;2023-06-26T05:36:16;14.70;99.90
36594;DHT22;22603;47.900;8.146;2023-06-26T05:39:05;14.90;99.90
36594;DHT22;22603;47.900;8.146;2023-06-26T05:41:52;15.10;99.90
36594;DHT22;22603;47.900;8.146;2023-06-26T05:44:40;15.20;99.90
36594;DHT22;22603;47.900;8.146;2023-06-26T05:47:27;15.30;99.90
36594;DHT22;22603;47.900;8.146;2023-06-26T05:50:15;15.50;99.90
36594;DHT22;22603;47.900;8.146;2023-06-26T05:53:02;15.60;99.90
36594;DHT22;22603;47.900;8.146;2023-06-26T05:55:51;15.80;99.90
36594;DHT22;22603;47.900;8.146;2023-06-26T05:58:39;16.00;99.90
36594;DHT22;22603;47.900;8.146;2023-06-26T06:01:27;16.10;99.90
36594;DHT22;22603;47.900;8.146;2023-06-26T06:04:14;16.30;99.90
36594;DHT22;22603;47.900;8.146;2023-06-26T06:07:01;16.40;99.90
36594;DHT22;22603;47.900;8.146;2023-06-26T06:09:48;16.60;99.90
36594;DHT22;22603;47.900;8.146;2023-06-26T06:12:37;16.80;99.90
36594;DHT22;22603;47.900;8.146;2023-06-26T06:15:24;16.90;99.90
36594;DHT22;22603;47.900;8.146;2023-06-26T06:18:15;17.60;99.90
36594;DHT22;22603;47.900;8.146;2023-06-26T06:21:02;18.30;99.90
36594;DHT22;22603;47.900;8.146;2023-06-26T06:23:49;19.40;99.90
36594;DHT22;22603;47.900;8.146;2023-06-26T06:26:36;20.00;99.90
36594;DHT22;22603;47.900;8.146;2023-06-26T06:29:24;20.80;99.90
36594;DHT22;22603;47.900;8.146;2023-06-26T06:32:12;21.40;99.90
36594;DHT22;22603;47.900;8.146;2023-06-26T06:34:59;21.80;99.90
36594;DHT22;22603;47.900;8.146;2023-06-26T06:37:49;22.10;99.90
36594;DHT22;22603;47.900;8.146;2023-06-26T06:40:36;22.10;99.90
36594;DHT22;22603;47.900;8.146;2023-06-26T06:43:24;22.30;99.90
36594;DHT22;22603;47.900;8.146;2023-06-26T06:46:12;22.50;99.90
36594;DHT22;22603;47.900;8.146;2023-06-26T06:48:59;22.50;99.90
36594;DHT22;22603;47.900;8.146;2023-06-26T06:51:47;22.90;99.90
36594;DHT22;22603;47.900;8.146;2023-06-26T06:54:51;23.10;99.90
36594;DHT22;22603;47.900;8.146;2023-06-26T06:57:39;23.40;99.90
36594;DHT22;22603;47.900;8.146;2023-06-26T07:00:26;24.20;99.90
36594;DHT22;22603;47.900;8.146;2023-06-26T07:03:17;24.60;99.90
36594;DHT22;22603;47.900;8.146;2023-06-26T07:06:05;25.10;99.90
36594;DHT22;22603;47.900;8.146;2023-06-26T07:08:52;25.70;99.90
36594;DHT22;22603;47.900;8.146;2023-06-26T07:11:39;26.30;99.90
36594;DHT22;22603;47.900;8.146;2023-06-26T07:14:26;27.10;99.90
36594;DHT22;22603;47.900;8.146;2023-06-26T07:17:13;27.20;99.90
36594;DHT22;22603;47.900;8.146;2023-06-26T07:20:03;27.90;99.90
36594;DHT22;22603;47.900;8.146;2023-06-26T07:22:53;28.80;99.90
36594;DHT22;22603;47.900;8.146;2023-06-26T07:25:40;29.30;99.90
36594;DHT22;22603;47.900;8.146;2023-06-26T07:28:27;29.50;99.90
36594;DHT22;22603;47.900;8.146;2023-06-26T07:31:14;29.70;99.90
36594;DHT22;22603;47.900;8.146;2023-06-26T07:34:02;30.20;99.90
36594;DHT22;22603;47.900;8.146;2023-06-26T07:36:50;30.10;99.90
36594;DHT22;22603;47.900;8.146;2023-06-26T07:39:37;30.00;99.90
36594;DHT22;22603;47.900;8.146;2023-06-26T07:42:24;30.50;99.90
36594;DHT22;22603;47.900;8.146;2023-06-26T07:45:11;30.80;99.90
36594;DHT22;22603;47.900;8.146;2023-06-26T07:47:58;30.70;99.90
36594;DHT22;22603;47.900;8.146;2023-06-26T07:50:45;30.70;99.90
36594;DHT22;22603;47.900;8.146;2023-06-26T07:53:34;31.00;99.90
36594;DHT22;22603;47.900;8.146;2023-06-26T07:56:21;31.10;99.90
36594;DHT22;22603;47.900;8.146;2023-06-26T07:59:08;31.40;99.90
36594;DHT22;22603;47.900;8.146;2023-06-26T08:01:56;31.80;99.90
36594;DHT22;22603;47.900;8.146;2023-06-26T08:04:44;31.60;99.90
36594;DHT22;22603;47.900;8.146;2023-06-26T08:07:31;31.90;99.90
36594;DHT22;22603;47.900;8.146;2023-06-26T08:10:19;32.30;99.90
36594;DHT22;22603;47.900;8.146;2023-06-26T08:13:06;32.20;99.90
36594;DHT22;22603;47.900;8.146;2023-06-26T08:15:53;32.30;99.90
36594;DHT22;22603;47.900;8.146;2023-06-26T08:18:40;32.60;99.90
36594;DHT22;22603;47.900;8.146;2023-06-26T08:21:27;32.90;99.90
36594;DHT22;22603;47.900;8.146;2023-06-26T08:24:14;33.10;99.90
36594;DHT22;22603;47.900;8.146;2023-06-26T08:27:05;33.30;99.90
36594;DHT22;22603;47.900;8.146;2023-06-26T08:29:53;33.30;99.90
36594;DHT22;22603;47.900;8.146;2023-06-26T08:32:40;33.40;99.90
36594;DHT22;22603;47.900;8.146;2023-06-26T08:35:28;33.70;99.90
36594;DHT22;22603;47.900;8.146;2023-06-26T08:38:15;33.60;99.90
36594;DHT22;22603;47.900;8.146;2023-06-26T08:41:07;33.70;99.90
36594;DHT22;22603;47.900;8.146;2023-06-26T08:43:56;33.10;99.90
36594;DHT22;22603;47.900;8.146;2023-06-26T08:46:43;33.40;99.90
36594;DHT22;22603;47.900;8.146;2023-06-26T08:49:37;33.50;99.90
36594;DHT22;22603;47.900;8.146;2023-06-26T08:52:27;33.50;99.90
36594;DHT22;22603;47.900;8.146;2023-06-26T08:55:16;33.90;99.90
36594;DHT22;22603;47.900;8.146;2023-06-26T08:58:05;33.80;99.90
36594;DHT22;22603;47.900;8.146;2023-06-26T09:00:53;34.50;99.90
36594;DHT22;22603;47.900;8.146;2023-06-26T09:03:42;34.20;99.90
36594;DHT22;22603;47.900;8.146;2023-06-26T09:06:29;34.60;99.90
36594;DHT22;22603;47.900;8.146;2023-06-26T09:09:16;35.00;99.90
36594;DHT22;22603;47.900;8.146;2023-06-26T09:12:04;35.00;99.90
36594;DHT22;22603;47.900;8.146;2023-06-26T09:14:51;34.70;99.90
36594;DHT22;22603;47.900;8.146;2023-06-26T09:17:40;33.00;99.90
36594;DHT22;22603;47.900;8.146;2023-06-26T09:20:28;33.00;99.90
36594;DHT22;22603;47.900;8.146;2023-06-26T09:23:16;33.30;99.90
36594;DHT22;22603;47.900;8.146;2023-06-26T09:26:03;32.20;99.90
36594;DHT22;22603;47.900;8.146;2023-06-26T09:28:51;32.80;99.90
36594;DHT22;22603;47.900;8.146;2023-06-26T09:31:39;32.80;99.90
36594;DHT22;22603;47.900;8.146;2023-06-26T09:34:31;32.20;99.90
36594;DHT22;22603;47.900;8.146;2023-06-26T09:37:19;31.10;99.90
36594;DHT22;22603;47.900;8.146;2023-06-26T09:40:07;31.10;99.90
36594;DHT22;22603;47.900;8.146;2023-06-26T09:43:02;31.40;99.90
36594;DHT22;22603;47.900;8.146;2023-06-26T09:45:50;31.00;99.90
36594;DHT22;22603;47.900;8.146;2023-06-26T09:48:37;31.00;99.90
36594;DHT22;22603;47.900;8.146;2023-06-26T09:51:25;30.50;99.90
36594;DHT22;22603;47.900;8.146;2023-06-26T09:54:15;29.70;99.90
36594;DHT22;22603;47.900;8.146;2023-06-26T09:57:09;30.40;99.90
36594;DHT22;22603;47.900;8.146;2023-06-26T09:59:56;30.70;99.90
36594;DHT22;22603;47.900;8.146;2023-06-26T10:02:43;31.20;99.90
36594;DHT22;22603;47.900;8.146;2023-06-26T10:05:31;30.90;99.90
36594;DHT22;22603;47.900;8.146;2023-06-26T10:08:20;30.80;99.90
36594;DHT22;22603;47.900;8.146;2023-06-26T10:11:11;31.00;99.90
36594;DHT22;22603;47.900;8.146;2023-06-26T10:14:01;31.10;99.90
36594;DHT22;22603;47.900;8.146;2023-06-26T10:17:03;30.80;99.90
36594;DHT22;22603;47.900;8.146;2023-06-26T10:19:52;30.80;99.90
36594;DHT22;22603;47.900;8.146;2023-06-26T10:22:44;30.80;99.90
36594;DHT22;22603;47.900;8.146;2023-06-26T10:25:34;30.10;99.90
36594;DHT22;22603;47.900;8.146;2023-06-26T10:28:25;30.50;99.90
36594;DHT22;22603;47.900;8.146;2023-06-26T10:31:13;31.20;99.90
36594;DHT22;22603;47.900;8.146;2023-06-26T10:34:00;30.60;99.90
36594;DHT22;22603;47.900;8.146;2023-06-26T10:36:47;29.70;99.90
36594;DHT22;22603;47.900;8.146;2023-06-26T10:39:48;28.90;99.90
36594;DHT22;22603;47.900;8.146;2023-06-26T10:42:38;28.00;99.90
36594;DHT22;22603;47.900;8.146;2023-06-26T10:45:28;27.50;99.90
36594;DHT22;22603;47.900;8.146;2023-06-26T10:48:16;27.40;99.90
36594;DHT22;22603;47.900;8.146;2023-06-26T10:51:13;27.90;99.90
36594;DHT22;22603;47.900;8.146;2023-06-26T10:54:01;28.20;99.90
36594;DHT22;22603;47.900;8.146;2023-06-26T10:56:49;27.80;99.90
36594;DHT22;22603;47.900;8.146;2023-06-26T10:59:39;27.40;99.90
36594;DHT22;22603;47.900;8.146;2023-06-26T11:02:27;26.60;99.90
36594;DHT22;22603;47.900;8.146;2023-06-26T11:05:24;26.10;99.90
36594;DHT22;22603;47.900;8.146;2023-06-26T11:08:12;25.80;99.90
36594;DHT22;22603;47.900;8.146;2023-06-26T11:11:04;25.70;99.90
36594;DHT22;22603;47.900;8.146;2023-06-26T11:13:52;25.40;99.90
36594;DHT22;22603;47.900;8.146;2023-06-26T11:16:42;25.50;99.90
36594;DHT22;22603;47.900;8.146;2023-06-26T11:19:29;25.70;99.90
36594;DHT22;22603;47.900;8.146;2023-06-26T11:22:17;26.80;99.90
36594;DHT22;22603;47.900;8.146;2023-06-26T11:25:06;27.90;99.90
36594;DHT22;22603;47.900;8.146;2023-06-26T11:27:53;28.30;99.90
36594;DHT22;22603;47.900;8.146;2023-06-26T11:30:40;28.60;99.90
36594;DHT22;22603;47.900;8.146;2023-06-26T11:33:29;29.30;99.90
36594;DHT22;22603;47.900;8.146;2023-06-26T11:36:16;30.00;99.90
36594;DHT22;22603;47.900;8.146;2023-06-26T11:39:05;30.30;99.90
36594;DHT22;22603;47.900;8.146;2023-06-26T11:41:52;30.30;99.90
36594;DHT22;22603;47.900;8.146;2023-06-26T11:44:40;30.40;99.90
36594;DHT22;22603;47.900;8.146;2023-06-26T11:47:29;30.70;99.90
36594;DHT22;22603;47.900;8.146;2023-06-26T11:50:18;31.30;99.90
36594;DHT22;22603;47.900;8.146;2023-06-26T11:53:05;31.00;99.90
36594;DHT22;22603;47.900;8.146;2023-06-26T11:55:53;31.10;99.90
36594;DHT22;22603;47.900;8.146;2023-06-26T11:59:00;31.20;99.90
36594;DHT22;22603;47.900;8.146;2023-06-26T12:01:50;31.60;99.90
36594;DHT22;22603;47.900;8.146;2023-06-26T12:04:38;31.00;99.90
36594;DHT22;22603;47.900;8.146;2023-06-26T12:07:27;30.50;99.90
36594;DHT22;22603;47.900;8.146;2023-06-26T12:10:14;30.50;99.90
36594;DHT22;22603;47.900;8.146;2023-06-26T12:13:02;30.10;99.90
36594;DHT22;22603;47.900;8.146;2023-06-26T12:15:49;30.10;99.90
36594;DHT22;22603;47.900;8.146;2023-06-26T12:18:36;29.70;99.90
36594;DHT22;22603;47.900;8.146;2023-06-26T12:21:47;29.70;99.90
36594;DHT22;22603;47.900;8.146;2023-06-26T12:24:40;30.00;99.90
36594;DHT22;22603;47.900;8.146;2023-06-26T12:27:29;29.80;99.90
36594;DHT22;22603;47.900;8.146;2023-06-26T12:30:16;30.20;99.90
36594;DHT22;22603;47.900;8.146;2023-06-26T12:33:03;30.40;99.90
36594;DHT22;22603;47.900;8.146;2023-06-26T12:35:50;30.30;99.90
36594;DHT22;22603;47.900;8.146;2023-06-26T12:38:36;29.90;99.90
36594;DHT22;22603;47.900;8.146;2023-06-26T12:41:25;29.80;99.90
36594;DHT22;22603;47.900;8.146;2023-06-26T12:44:19;29.60;99.90
36594;DHT22;22603;47.900;8.146;2023-06-26T12:47:07;28.70;99.90
36594;DHT22;22603;47.900;8.146;2023-06-26T12:49:54;29.40;99.90
36594;DHT22;22603;47.900;8.146;2023-06-26T12:52:41;29.10;99.90
36594;DHT22;22603;47.900;8.146;2023-06-26T12:55:29;29.70;99.90
36594;DHT22;22603;47.900;8.146;2023-06-26T12:58:17;29.10;99.90
36594;DHT22;22603;47.900;8.146;2023-06-26T13:01:05;28.90;99.90
36594;DHT22;22603;47.900;8.146;2023-06-26T13:04:00;29.10;99.90
36594;DHT22;22603;47.900;8.146;2023-06-26T13:06:48;29.60;99.90
36594;DHT22;22603;47.900;8.146;2023-06-26T13:09:36;29.70;99.90
36594;DHT22;22603;47.900;8.146;2023-06-26T13:12:23;29.80;99.90
36594;DHT22;22603;47.900;8.146;2023-06-26T13:15:12;29.80;99.90
36594;DHT22;22603;47.900;8.146;2023-06-26T13:17:59;29.50;99.90
36594;DHT22;22603;47.900;8.146;2023-06-26T13:20:46;29.50;99.90
36594;DHT22;22603;47.900;8.146;2023-06-26T13:23:33;29.20;99.90
36594;DHT22;22603;47.900;8.146;2023-06-26T13:26:20;29.60;99.90
36594;DHT22;22603;47.900;8.146;2023-06-26T13:29:21;29.40;99.90
36594;DHT22;22603;47.900;8.146;2023-06-26T13:32:10;29.30;99.90
36594;DHT22;22603;47.900;8.146;2023-06-26T13:34:57;29.50;99.90
36594;DHT22;22603;47.900;8.146;2023-06-26T13:37:45;29.40;99.90
36594;DHT22;22603;47.900;8.146;2023-06-26T13:40:32;29.30;99.90
36594;DHT22;22603;47.900;8.146;2023-06-26T13:43:20;29.30;99.90
36594;DHT22;22603;47.900;8.146;2023-06-26T13:46:08;29.30;99.90
36594;DHT22;22603;47.900;8.146;2023-06-26T13:48:57;28.90;99.90
36594;DHT22;22603;47.900;8.146;2023-06-26T13:51:44;28.80;99.90
36594;DHT22;22603;47.900;8.146;2023-06-26T13:54:32;28.90;99.90
36594;DHT22;22603;47.900;8.146;2023-06-26T13:57:20;28.60;99.90
36594;DHT22;22603;47.900;8.146;2023-06-26T14:00:08;28.80;99.90
36594;DHT22;22603;47.900;8.146;2023-06-26T14:02:57;28.70;99.90
36594;DHT22;22603;47.900;8.146;2023-06-26T14:05:46;29.10;99.90
36594;DHT22;22603;47.900;8.146;2023-06-26T14:08:34;29.40;99.90
36594;DHT22;22603;47.900;8.146;2023-06-26T14:11:21;29.20;99.90
36594;DHT22;22603;47.900;8.146;2023-06-26T14:14:09;29.20;99.90
36594;DHT22;22603;47.900;8.146;2023-06-26T14:16:56;29.20;99.90
36594;DHT22;22603;47.900;8.146;2023-06-26T14:19:45;29.10;99.90
36594;DHT22;22603;47.900;8.146;2023-06-26T14:22:34;29.20;99.90
36594;DHT22;22603;47.900;8.146;2023-06-26T14:25:21;29.20;99.90
36594;DHT22;22603;47.900;8.146;2023-06-26T14:28:08;29.10;99.90
36594;DHT22;22603;47.900;8.146;2023-06-26T14:30:55;28.90;99.90
36594;DHT22;22603;47.900;8.146;2023-06-26T14:33:41;28.60;99.90
36594;DHT22;22603;47.900;8.146;2023-06-26T14:36:29;28.50;99.90
36594;DHT22;22603;47.900;8.146;2023-06-26T14:39:18;28.50;99.90
36594;DHT22;22603;47.900;8.146;2023-06-26T14:42:06;28.50;99.90
36594;DHT22;22603;47.900;8.146;2023-06-26T14:44:54;28.70;99.90
36594;DHT22;22603;47.900;8.146;2023-06-26T14:47:42;28.50;99.90
36594;DHT22;22603;47.900;8.146;2023-06-26T14:50:29;28.00;99.90
36594;DHT22;22603;47.900;8.146;2023-06-26T14:53:16;28.10;99.90
36594;DHT22;22603;47.900;8.146;2023-06-26T14:56:05;27.90;99.90
36594;DHT22;22603;47.900;8.146;2023-06-26T14:58:53;28.10;99.90
36594;DHT22;22603;47.900;8.146;2023-06-26T15:01:41;28.20;99.90
36594;DHT22;22603;47.900;8.146;2023-06-26T15:04:28;28.00;99.90
36594;DHT22;22603;47.900;8.146;2023-06-26T15:07:15;27.60;99.90
36594;DHT22;22603;47.900;8.146;2023-06-26T15:10:03;27.80;99.90
36594;DHT22;22603;47.900;8.146;2023-06-26T15:12:53;27.90;99.90
36594;DHT22;22603;47.900;8.146;2023-06-26T15:15:40;28.10;99.90
36594;DHT22;22603;47.900;8.146;2023-06-26T15:18:27;27.80;99.90
36594;DHT22;22603;47.900;8.146;2023-06-26T15:21:14;27.90;99.90
36594;DHT22;22603;47.900;8.146;2023-06-26T15:24:02;27.90;99.90
36594;DHT22;22603;47.900;8.146;2023-06-26T15:26:48;28.00;99.90
36594;DHT22;22603;47.900;8.146;2023-06-26T15:29:37;27.90;99.90
36594;DHT22;22603;47.900;8.146;2023-06-26T15:35:54;27.90;99.90
36594;DHT22;22603;47.900;8.146;2023-06-26T15:38:41;27.80;99.90
36594;DHT22;22603;47.900;8.146;2023-06-26T15:41:28;27.90;99.90
36594;DHT22;22603;47.900;8.146;2023-06-26T15:44:16;27.90;99.90
36594;DHT22;22603;47.900;8.146;2023-06-26T15:47:05;28.00;99.90
36594;DHT22;22603;47.900;8.146;2023-06-26T15:49:52;27.80;99.90
36594;DHT22;22603;47.900;8.146;2023-06-26T15:52:39;27.70;99.90
36594;DHT22;22603;47.900;8.146;2023-06-26T15:55:26;27.30;99.90
36594;DHT22;22603;47.900;8.146;2023-06-26T15:58:13;27.30;99.90
36594;DHT22;22603;47.900;8.146;2023-06-26T16:01:00;27.30;99.90
36594;DHT22;22603;47.900;8.146;2023-06-26T16:03:48;27.10;99.90
36594;DHT22;22603;47.900;8.146;2023-06-26T16:06:35;27.10;99.90
36594;DHT22;22603;47.900;8.146;2023-06-26T16:09:22;27.50;99.90
36594;DHT22;22603;47.900;8.146;2023-06-26T16:12:09;27.90;99.90
36594;DHT22;22603;47.900;8.146;2023-06-26T16:14:56;27.60;99.90
36594;DHT22;22603;47.900;8.146;2023-06-26T16:17:43;27.50;99.90
36594;DHT22;22603;47.900;8.146;2023-06-26T16:20:32;27.30;99.90
36594;DHT22;22603;47.900;8.146;2023-06-26T16:23:19;27.50;99.90
36594;DHT22;22603;47.900;8.146;2023-06-26T16:26:08;27.40;99.90
36594;DHT22;22603;47.900;8.146;2023-06-26T16:28:55;27.00;99.90
36594;DHT22;22603;47.900;8.146;2023-06-26T16:31:42;26.90;99.90
36594;DHT22;22603;47.900;8.146;2023-06-26T16:34:29;26.70;99.90
36594;DHT22;22603;47.900;8.146;2023-06-26T16:37:17;26.00;99.90
36594;DHT22;22603;47.900;8.146;2023-06-26T16:40:06;26.10;99.90
36594;DHT22;22603;47.900;8.146;2023-06-26T16:42:53;26.30;99.90
36594;DHT22;22603;47.900;8.146;2023-06-26T16:45:40;26.30;99.90
36594;DHT22;22603;47.900;8.146;2023-06-26T16:48:27;26.10;99.90
36594;DHT22;22603;47.900;8.146;2023-06-26T16:51:14;25.90;99.90
36594;DHT22;22603;47.900;8.146;2023-06-26T16:54:03;25.80;99.90
36594;DHT22;22603;47.900;8.146;2023-06-26T16:56:50;25.50;99.90
36594;DHT22;22603;47.900;8.146;2023-06-26T16:59:37;25.50;99.90
36594;DHT22;22603;47.900;8.146;2023-06-26T17:02:24;25.10;99.90
36594;DHT22;22603;47.900;8.146;2023-06-26T17:05:12;25.10;99.90
36594;DHT22;22603;47.900;8.146;2023-06-26T17:07:59;25.00;99.90
36594;DHT22;22603;47.900;8.146;2023-06-26T17:10:47;25.10;99.90
36594;DHT22;22603;47.900;8.146;2023-06-26T17:13:34;25.10;99.90
36594;DHT22;22603;47.900;8.146;2023-06-26T17:16:21;25.10;99.90
36594;DHT22;22603;47.900;8.146;2023-06-26T17:19:08;24.60;99.90
36594;DHT22;22603;47.900;8.146;2023-06-26T17:21:56;24.70;99.90
36594;DHT22;22603;47.900;8.146;2023-06-26T17:24:43;24.60;99.90
36594;DHT22;22603;47.900;8.146;2023-06-26T17:27:32;24.50;99.90
36594;DHT22;22603;47.900;8.146;2023-06-26T17:30:19;24.50;99.90
36594;DHT22;22603;47.900;8.146;2023-06-26T17:33:06;24.60;99.90
36594;DHT22;22603;47.900;8.146;2023-06-26T17:35:53;24.30;99.90
36594;DHT22;22603;47.900;8.146;2023-06-26T17:38:40;24.00;99.90
36594;DHT22;22603;47.900;8.146;2023-06-26T17:41:27;24.00;99.90
36594;DHT22;22603;47.900;8.146;2023-06-26T17:44:15;23.90;99.90
36594;DHT22;22603;47.900;8.146;2023-06-26T17:47:03;23.70;99.90